createdAt,value
2017-11-26T00:00:45.985Z,17.60
2017-11-26T00:01:46.015Z,21.50
2017-11-26T00:02:45.995Z,16.50
2017-11-26T00:03:46.005Z,20.90
2017-11-26T00:04:46.010Z,22.30
2017-11-26T00:05:46.015Z,19.20
2017-11-26T00:06:46.032Z,23.70
2017-11-26T00:07:46.028Z,24.80
2017-11-26T00:08:46.047Z,25.60
2017-11-26T00:09:46.035Z,20.10
2017-11-26T00:10:46.062Z,20.80
2017-11-26T00:11:46.049Z,24.10
2017-11-26T00:12:46.059Z,23.80
2017-11-26T00:13:46.057Z,22.60
2017-11-26T00:14:46.071Z,25.30
2017-11-26T00:15:46.073Z,25.20
2017-11-26T00:16:46.084Z,22.30
2017-11-26T00:17:46.089Z,24.00
2017-11-26T00:18:46.095Z,19.70
2017-11-26T00:19:46.097Z,24.00
2017-11-26T00:20:46.196Z,22.90
2017-11-26T00:21:46.106Z,22.60
2017-11-26T00:22:46.111Z,27.70
2017-11-26T00:23:46.115Z,21.90
2017-11-26T00:24:46.144Z,26.00
2017-11-26T00:25:46.136Z,25.40
2017-11-26T00:26:46.134Z,22.90
2017-11-26T00:27:46.145Z,26.60
2017-11-26T00:28:46.142Z,23.70
2017-11-26T00:29:46.154Z,26.40
2017-11-26T00:30:46.152Z,26.40
2017-11-26T00:31:46.166Z,27.20
2017-11-26T00:32:46.170Z,28.50
2017-11-26T00:33:46.223Z,24.50
2017-11-26T00:34:46.182Z,25.80
2017-11-26T00:35:46.185Z,27.30
2017-11-26T00:36:46.195Z,29.40
2017-11-26T00:37:46.199Z,27.30
2017-11-26T00:38:46.199Z,31.50
2017-11-26T00:39:46.481Z,30.20
2017-11-26T00:40:46.210Z,32.50
2017-11-26T00:41:46.218Z,33.90
2017-11-26T00:42:46.224Z,28.60
2017-11-26T00:43:46.234Z,29.00
2017-11-26T00:44:46.257Z,34.80
2017-11-26T00:45:46.237Z,27.90
2017-11-26T00:46:46.245Z,32.50
2017-11-26T00:47:46.255Z,31.80
2017-11-26T00:48:46.254Z,26.80
2017-11-26T00:49:46.257Z,35.00
2017-11-26T00:50:46.270Z,28.20
2017-11-26T00:51:46.271Z,32.40
2017-11-26T00:52:46.278Z,31.40
2017-11-26T00:53:46.298Z,31.10
2017-11-26T00:54:46.291Z,30.00
2017-11-26T00:55:46.291Z,27.70
2017-11-26T00:56:46.301Z,29.70
2017-11-26T00:57:46.305Z,28.90
2017-11-26T00:58:46.306Z,30.30
2017-11-26T00:59:46.318Z,34.50
2017-11-26T01:00:46.317Z,30.30
2017-11-26T01:01:46.346Z,26.80
2017-11-26T01:02:46.331Z,30.00
2017-11-26T01:03:46.337Z,32.30
2017-11-26T01:04:46.348Z,34.30
2017-11-26T01:05:46.344Z,30.50
2017-11-26T01:06:46.352Z,30.20
2017-11-26T01:07:46.366Z,32.90
2017-11-26T01:08:46.357Z,32.10
2017-11-26T01:09:46.370Z,31.00
2017-11-26T01:10:46.380Z,34.20
2017-11-26T01:11:46.487Z,34.40
2017-11-26T01:12:46.381Z,34.40
2017-11-26T01:13:46.394Z,38.30
2017-11-26T01:14:46.397Z,33.40
2017-11-26T01:15:46.410Z,32.00
2017-11-26T01:16:46.416Z,32.40
2017-11-26T01:17:46.409Z,30.50
2017-11-26T01:18:46.421Z,35.40
2017-11-26T01:19:46.427Z,31.90
2017-11-26T01:20:46.430Z,34.90
2017-11-26T01:21:46.440Z,32.60
2017-11-26T01:22:46.448Z,34.20
2017-11-26T01:23:46.439Z,31.50
2017-11-26T01:24:46.499Z,29.60
2017-11-26T01:25:46.491Z,32.60
2017-11-26T01:26:46.455Z,33.20
2017-11-26T01:27:46.472Z,28.50
2017-11-26T01:28:46.471Z,29.20
2017-11-26T01:29:46.791Z,31.40
2017-11-26T01:30:46.487Z,30.60
2017-11-26T01:31:46.489Z,30.40
2017-11-26T01:32:46.522Z,32.00
2017-11-26T01:33:46.501Z,33.40
2017-11-26T01:34:46.511Z,31.00
2017-11-26T01:35:46.507Z,31.50
2017-11-26T01:36:46.518Z,32.80
2017-11-26T01:37:46.526Z,29.40
2017-11-26T01:38:46.528Z,31.50
2017-11-26T01:39:46.549Z,28.10
2017-11-26T01:40:46.543Z,25.90
2017-11-26T01:41:46.545Z,25.70
2017-11-26T01:42:46.545Z,35.50
2017-11-26T01:43:46.549Z,33.50
2017-11-26T01:44:46.745Z,30.90
2017-11-26T01:45:46.567Z,32.90
2017-11-26T01:46:46.575Z,27.40
2017-11-26T01:47:47.212Z,37.80
2017-11-26T01:48:46.576Z,33.30
2017-11-26T01:49:46.588Z,32.20
2017-11-26T01:50:46.612Z,32.30
2017-11-26T01:51:46.597Z,34.10
2017-11-26T01:52:46.615Z,33.60
2017-11-26T01:53:46.607Z,32.10
2017-11-26T01:54:46.612Z,35.90
2017-11-26T01:55:46.613Z,35.90
2017-11-26T01:56:46.621Z,33.20
2017-11-26T01:57:46.636Z,33.30
2017-11-26T01:58:46.705Z,34.40
2017-11-26T01:59:46.638Z,31.90
2017-11-26T02:00:46.642Z,30.90
2017-11-26T02:01:46.647Z,33.10
2017-11-26T02:02:46.719Z,30.50
2017-11-26T02:03:47.072Z,29.40
2017-11-26T02:04:46.667Z,28.20
2017-11-26T02:05:46.674Z,31.40
2017-11-26T02:06:46.676Z,27.20
2017-11-26T02:07:46.687Z,27.00
2017-11-26T02:08:46.921Z,32.30
2017-11-26T02:09:46.687Z,30.70
2017-11-26T02:10:46.696Z,22.70
2017-11-26T02:11:46.696Z,29.20
2017-11-26T02:12:47.022Z,27.40
2017-11-26T02:13:46.709Z,28.30
2017-11-26T02:14:46.716Z,27.80
2017-11-26T02:15:46.727Z,30.10
2017-11-26T02:16:46.732Z,28.20
2017-11-26T02:17:47.057Z,35.50
2017-11-26T02:18:46.738Z,27.90
2017-11-26T02:19:47.117Z,28.80
2017-11-26T02:20:46.749Z,30.40
2017-11-26T02:21:46.753Z,32.50
2017-11-26T02:22:46.758Z,24.70
2017-11-26T02:23:46.767Z,31.20
2017-11-26T02:25:46.855Z,25.90
2017-11-26T02:26:46.789Z,26.20
2017-11-26T02:27:46.800Z,29.90
2017-11-26T02:28:46.783Z,28.20
2017-11-26T02:29:47.100Z,30.40
2017-11-26T02:30:46.808Z,29.70
2017-11-26T02:31:46.804Z,28.50
2017-11-26T02:32:46.809Z,24.30
2017-11-26T02:33:46.812Z,26.20
2017-11-26T02:34:46.828Z,27.80
2017-11-26T02:35:46.829Z,27.70
2017-11-26T02:36:46.835Z,25.10
2017-11-26T02:37:46.839Z,25.80
2017-11-26T02:38:46.844Z,27.60
2017-11-26T02:39:46.851Z,29.20
2017-11-26T02:40:46.853Z,25.90
2017-11-26T02:41:46.855Z,27.00
2017-11-26T02:42:46.941Z,23.60
2017-11-26T02:43:47.670Z,24.80
2017-11-26T02:44:46.883Z,25.10
2017-11-26T02:45:46.876Z,28.60
2017-11-26T02:46:46.888Z,26.50
2017-11-26T02:47:46.887Z,27.50
2017-11-26T02:48:46.934Z,28.80
2017-11-26T02:49:46.899Z,28.20
2017-11-26T02:50:46.904Z,27.00
2017-11-26T02:51:46.923Z,24.70
2017-11-26T02:52:46.922Z,27.60
2017-11-26T02:53:46.931Z,26.30
2017-11-26T02:54:46.941Z,25.60
2017-11-26T02:55:46.938Z,24.50
2017-11-26T02:56:46.937Z,23.80
2017-11-26T02:57:46.967Z,26.50
2017-11-26T02:58:46.953Z,24.60
2017-11-26T02:59:46.953Z,25.50
2017-11-26T03:00:46.963Z,23.90
2017-11-26T03:01:46.972Z,22.30
2017-11-26T03:02:46.974Z,26.10
2017-11-26T03:03:46.977Z,24.90
2017-11-26T03:04:46.980Z,21.60
2017-11-26T03:05:46.994Z,24.80
2017-11-26T03:06:47.013Z,21.30
2017-11-26T03:07:47.005Z,25.70
2017-11-26T03:08:47.002Z,24.30
2017-11-26T03:09:47.322Z,26.60
2017-11-26T03:10:47.017Z,23.70
2017-11-26T03:11:47.015Z,22.80
2017-11-26T03:12:47.026Z,21.90
2017-11-26T03:13:47.034Z,25.00
2017-11-26T03:14:47.085Z,24.40
2017-11-26T03:15:47.056Z,23.80
2017-11-26T03:16:47.090Z,22.50
2017-11-26T03:17:47.063Z,24.10
2017-11-26T03:18:47.062Z,23.30
2017-11-26T03:19:47.079Z,23.90
2017-11-26T03:20:47.065Z,25.00
2017-11-26T03:21:47.083Z,28.60
2017-11-26T03:22:47.075Z,21.30
2017-11-26T03:23:47.091Z,24.00
2017-11-26T03:24:47.086Z,23.40
2017-11-26T03:25:47.093Z,23.40
2017-11-26T03:26:47.117Z,23.00
2017-11-26T03:27:47.103Z,23.60
2017-11-26T03:28:47.112Z,23.10
2017-11-26T03:29:47.116Z,24.00
2017-11-26T03:30:47.450Z,24.60
2017-11-26T03:31:47.130Z,23.40
2017-11-26T03:32:47.142Z,23.10
2017-11-26T03:33:47.137Z,24.50
2017-11-26T03:34:47.149Z,24.70
2017-11-26T03:35:47.152Z,26.90
2017-11-26T03:36:47.168Z,27.70
2017-11-26T03:37:47.159Z,23.50
2017-11-26T03:38:47.195Z,27.10
2017-11-26T03:39:47.175Z,25.70
2017-11-26T03:40:47.179Z,20.80
2017-11-26T03:41:47.182Z,22.40
2017-11-26T03:42:47.238Z,24.70
2017-11-26T03:43:47.196Z,26.80
2017-11-26T03:44:48.153Z,21.40
2017-11-26T03:45:47.201Z,22.50
2017-11-26T03:46:47.210Z,26.00
2017-11-26T03:47:47.462Z,24.90
2017-11-26T03:48:47.226Z,24.50
2017-11-26T03:49:47.226Z,22.80
2017-11-26T03:50:47.230Z,23.00
2017-11-26T03:51:47.244Z,24.10
2017-11-26T03:52:47.249Z,23.10
2017-11-26T03:53:47.251Z,19.70
2017-11-26T03:54:47.248Z,26.20
2017-11-26T03:55:47.261Z,24.00
2017-11-26T03:56:47.272Z,22.90
2017-11-26T03:57:47.309Z,27.90
2017-11-26T03:58:47.270Z,28.20
2017-11-26T03:59:47.416Z,26.10
2017-11-26T04:00:47.288Z,21.70
2017-11-26T04:01:47.293Z,25.30
2017-11-26T04:02:47.306Z,25.00
2017-11-26T04:03:47.404Z,24.30
2017-11-26T04:04:47.306Z,20.40
2017-11-26T04:05:47.315Z,19.70
2017-11-26T04:06:47.319Z,22.60
2017-11-26T04:07:47.320Z,20.20
2017-11-26T04:08:47.405Z,22.50
2017-11-26T04:09:47.343Z,25.80
2017-11-26T04:10:47.339Z,23.40
2017-11-26T04:11:47.346Z,26.20
2017-11-26T04:12:48.159Z,23.10
2017-11-26T04:13:47.405Z,23.10
2017-11-26T04:14:47.362Z,22.70
2017-11-26T04:15:47.369Z,21.50
2017-11-26T04:16:47.375Z,22.50
2017-11-26T04:17:47.374Z,20.60
2017-11-26T04:18:47.381Z,20.90
2017-11-26T04:19:47.395Z,24.00
2017-11-26T04:20:47.396Z,23.40
2017-11-26T04:21:47.400Z,18.20
2017-11-26T04:22:47.403Z,19.60
2017-11-26T04:23:47.412Z,20.10
2017-11-26T04:24:47.535Z,20.40
2017-11-26T04:25:47.432Z,18.50
2017-11-26T04:26:47.432Z,21.10
2017-11-26T04:27:47.436Z,19.90
2017-11-26T04:28:47.446Z,18.40
2017-11-26T04:29:47.707Z,21.90
2017-11-26T04:30:47.449Z,20.90
2017-11-26T04:31:47.460Z,18.50
2017-11-26T04:32:47.462Z,19.40
2017-11-26T04:33:47.460Z,22.00
2017-11-26T04:34:47.467Z,21.10
2017-11-26T04:35:47.469Z,19.80
2017-11-26T04:36:47.483Z,21.00
2017-11-26T04:37:47.491Z,24.30
2017-11-26T04:38:47.497Z,20.90
2017-11-26T04:39:47.498Z,18.70
2017-11-26T04:40:47.504Z,19.50
2017-11-26T04:41:47.541Z,16.50
2017-11-26T04:42:47.510Z,17.20
2017-11-26T04:43:47.539Z,21.80
2017-11-26T04:44:47.529Z,18.00
2017-11-26T04:45:47.586Z,19.80
2017-11-26T04:46:47.538Z,18.00
2017-11-26T04:47:47.546Z,20.10
2017-11-26T04:48:47.637Z,20.10
2017-11-26T04:49:47.565Z,20.10
2017-11-26T04:50:47.571Z,20.10
2017-11-26T04:51:47.576Z,21.50
2017-11-26T04:52:47.569Z,23.10
2017-11-26T04:53:47.569Z,22.40
2017-11-26T04:54:47.572Z,18.30
2017-11-26T04:55:47.581Z,21.70
2017-11-26T04:56:47.592Z,19.50
2017-11-26T04:57:47.595Z,20.30
2017-11-26T04:58:47.594Z,19.40
2017-11-26T04:59:47.602Z,26.20
2017-11-26T05:00:47.614Z,25.20
2017-11-26T05:01:47.618Z,23.40
2017-11-26T05:02:47.621Z,20.70
2017-11-26T05:03:47.621Z,18.60
2017-11-26T05:04:47.627Z,19.90
2017-11-26T05:05:47.640Z,20.00
2017-11-26T05:06:47.728Z,20.40
2017-11-26T05:07:47.650Z,18.80
2017-11-26T05:08:47.690Z,19.40
2017-11-26T05:09:47.662Z,26.60
2017-11-26T05:10:47.669Z,18.80
2017-11-26T05:11:47.669Z,21.20
2017-11-26T05:12:47.668Z,22.20
2017-11-26T05:13:47.677Z,25.60
2017-11-26T05:14:47.683Z,19.90
2017-11-26T05:15:47.686Z,20.50
2017-11-26T05:16:47.692Z,19.60
2017-11-26T05:17:47.704Z,19.00
2017-11-26T05:18:47.715Z,18.40
2017-11-26T05:19:47.714Z,18.30
2017-11-26T05:20:47.730Z,18.50
2017-11-26T05:21:47.731Z,19.70
2017-11-26T05:22:47.719Z,20.00
2017-11-26T05:23:47.732Z,20.20
2017-11-26T05:24:47.734Z,19.30
2017-11-26T05:25:47.744Z,17.30
2017-11-26T05:26:47.740Z,17.20
2017-11-26T05:27:47.853Z,16.60
2017-11-26T05:28:47.800Z,20.30
2017-11-26T05:29:47.818Z,20.60
2017-11-26T05:30:47.764Z,20.40
2017-11-26T05:31:47.772Z,19.50
2017-11-26T05:32:47.873Z,21.00
2017-11-26T05:33:47.801Z,24.30
2017-11-26T05:34:47.829Z,18.30
2017-11-26T05:35:47.799Z,17.40
2017-11-26T05:36:47.814Z,17.20
2017-11-26T05:37:47.829Z,16.90
2017-11-26T05:38:47.822Z,20.50
2017-11-26T05:39:47.883Z,21.00
2017-11-26T05:40:47.883Z,21.60
2017-11-26T05:41:47.824Z,19.50
2017-11-26T05:42:47.863Z,23.20
2017-11-26T05:43:47.838Z,21.90
2017-11-26T05:44:47.845Z,18.10
2017-11-26T05:45:47.873Z,18.90
2017-11-26T05:46:47.860Z,19.40
2017-11-26T05:47:47.871Z,17.80
2017-11-26T05:48:47.944Z,19.30
2017-11-26T05:49:47.867Z,22.70
2017-11-26T05:50:47.876Z,19.90
2017-11-26T05:51:47.872Z,19.80
2017-11-26T05:52:47.884Z,20.10
2017-11-26T05:53:47.884Z,17.20
2017-11-26T05:54:47.905Z,14.30
2017-11-26T05:55:47.916Z,18.00
2017-11-26T05:56:47.906Z,14.80
2017-11-26T05:57:47.934Z,14.30
2017-11-26T05:58:47.916Z,19.10
2017-11-26T05:59:47.917Z,17.60
2017-11-26T06:00:47.936Z,14.60
2017-11-26T06:01:47.924Z,16.00
2017-11-26T06:02:47.941Z,19.90
2017-11-26T06:03:47.942Z,18.20
2017-11-26T06:04:47.938Z,20.20
2017-11-26T06:05:47.952Z,19.00
2017-11-26T06:06:47.959Z,18.20
2017-11-26T06:07:47.955Z,19.00
2017-11-26T06:08:47.965Z,13.20
2017-11-26T06:09:47.971Z,20.80
2017-11-26T06:10:47.980Z,17.80
2017-11-26T06:11:47.984Z,16.00
2017-11-26T06:12:51.867Z,12.90
2017-11-26T06:13:47.992Z,13.40
2017-11-26T06:14:48.000Z,15.10
2017-11-26T06:15:48.009Z,14.30
2017-11-26T06:16:48.012Z,17.00
2017-11-26T06:17:48.011Z,14.80
2017-11-26T06:18:48.014Z,13.60
2017-11-26T06:19:48.027Z,12.80
2017-11-26T06:20:48.123Z,15.00
2017-11-26T06:21:48.036Z,19.00
2017-11-26T06:22:48.035Z,13.40
2017-11-26T06:23:48.047Z,16.10
2017-11-26T06:24:48.050Z,18.10
2017-11-26T06:25:48.055Z,17.10
2017-11-26T06:26:48.056Z,13.10
2017-11-26T06:27:48.064Z,16.70
2017-11-26T06:28:48.070Z,17.90
2017-11-26T06:29:48.083Z,15.10
2017-11-26T06:30:48.076Z,16.80
2017-11-26T06:31:48.084Z,11.00
2017-11-26T06:32:48.107Z,13.40
2017-11-26T06:33:48.122Z,11.30
2017-11-26T06:34:48.110Z,13.90
2017-11-26T06:35:48.106Z,13.90
2017-11-26T06:36:48.120Z,15.90
2017-11-26T06:37:48.115Z,14.80
2017-11-26T06:38:48.120Z,13.20
2017-11-26T06:39:48.130Z,12.50
2017-11-26T06:40:48.132Z,11.90
2017-11-26T06:41:48.143Z,15.80
2017-11-26T06:42:48.149Z,12.60
2017-11-26T06:43:48.154Z,18.70
2017-11-26T06:44:48.152Z,11.80
2017-11-26T06:45:48.164Z,12.80
2017-11-26T06:46:48.165Z,18.70
2017-11-26T06:47:48.165Z,17.80
2017-11-26T06:48:48.184Z,14.90
2017-11-26T06:49:48.181Z,15.60
2017-11-26T06:50:48.188Z,13.00
2017-11-26T06:51:48.193Z,12.10
2017-11-26T06:52:48.193Z,13.20
2017-11-26T06:53:48.202Z,15.20
2017-11-26T06:54:48.210Z,13.80
2017-11-26T06:55:48.217Z,12.70
2017-11-26T06:56:48.222Z,16.90
2017-11-26T06:57:48.219Z,14.70
2017-11-26T06:58:48.224Z,14.60
2017-11-26T06:59:48.247Z,18.00
2017-11-26T07:00:48.246Z,16.30
2017-11-26T07:01:48.294Z,11.80
2017-11-26T07:02:48.247Z,15.20
2017-11-26T07:03:48.272Z,15.60
2017-11-26T07:04:48.288Z,13.60
2017-11-26T07:05:48.261Z,12.10
2017-11-26T07:06:48.262Z,10.00
2017-11-26T07:07:48.277Z,15.90
2017-11-26T07:08:48.277Z,13.90
2017-11-26T07:09:48.285Z,11.10
2017-11-26T07:10:48.290Z,15.20
2017-11-26T07:11:48.408Z,17.50
2017-11-26T07:12:48.306Z,17.70
2017-11-26T07:13:48.305Z,10.50
2017-11-26T07:14:48.313Z,13.60
2017-11-26T07:15:48.312Z,18.10
2017-11-26T07:16:48.326Z,14.10
2017-11-26T07:17:48.334Z,16.50
2017-11-26T07:18:48.340Z,8.80
2017-11-26T07:19:48.341Z,16.10
2017-11-26T07:20:48.343Z,16.80
2017-11-26T07:21:48.353Z,18.90
2017-11-26T07:22:48.361Z,19.10
2017-11-26T07:23:48.360Z,13.80
2017-11-26T07:24:48.383Z,18.40
2017-11-26T07:25:48.380Z,12.60
2017-11-26T07:26:48.383Z,14.80
2017-11-26T07:27:48.391Z,15.80
2017-11-26T07:28:48.393Z,17.80
2017-11-26T07:29:48.412Z,18.70
2017-11-26T07:30:48.421Z,18.70
2017-11-26T07:31:48.420Z,19.80
2017-11-26T07:32:48.413Z,16.90
2017-11-26T07:33:48.421Z,18.10
2017-11-26T07:34:48.417Z,23.70
2017-11-26T07:35:48.429Z,18.10
2017-11-26T07:36:48.444Z,18.90
2017-11-26T07:37:48.473Z,19.00
2017-11-26T07:38:48.461Z,15.90
2017-11-26T07:39:48.570Z,18.30
2017-11-26T07:40:48.456Z,18.20
2017-11-26T07:41:48.470Z,14.10
2017-11-26T07:42:48.466Z,17.60
2017-11-26T07:43:48.481Z,16.50
2017-11-26T07:44:48.489Z,18.00
2017-11-26T07:45:48.482Z,17.30
2017-11-26T07:46:48.490Z,21.20
2017-11-26T07:47:48.497Z,15.90
2017-11-26T07:48:48.498Z,15.20
2017-11-26T07:49:48.510Z,16.50
2017-11-26T07:50:48.511Z,17.30
2017-11-26T07:51:48.512Z,13.40
2017-11-26T07:52:48.523Z,17.50
2017-11-26T07:53:48.528Z,14.70
2017-11-26T07:54:48.529Z,18.20
2017-11-26T07:55:48.544Z,17.50
2017-11-26T07:56:48.554Z,18.00
2017-11-26T07:57:48.553Z,17.40
2017-11-26T07:58:48.554Z,20.60
2017-11-26T07:59:48.560Z,22.70
2017-11-26T08:00:48.582Z,14.90
2017-11-26T08:01:48.569Z,18.30
2017-11-26T08:02:48.573Z,20.80
2017-11-26T08:03:48.582Z,18.10
2017-11-26T08:04:48.587Z,19.90
2017-11-26T08:05:48.596Z,13.90
2017-11-26T08:06:48.595Z,20.30
2017-11-26T08:07:48.609Z,15.50
2017-11-26T08:08:48.613Z,21.80
2017-11-26T08:09:48.614Z,16.70
2017-11-26T08:10:48.626Z,15.50
2017-11-26T08:11:48.633Z,18.70
2017-11-26T08:12:48.634Z,15.60
2017-11-26T08:13:48.640Z,19.10
2017-11-26T08:14:48.645Z,14.00
2017-11-26T08:15:48.659Z,15.40
2017-11-26T08:16:48.667Z,16.70
2017-11-26T08:17:48.660Z,19.80
2017-11-26T08:18:48.680Z,16.30
2017-11-26T08:19:48.675Z,12.00
2017-11-26T08:20:48.688Z,17.50
2017-11-26T08:21:48.692Z,16.70
2017-11-26T08:22:48.684Z,19.90
2017-11-26T08:23:48.694Z,15.80
2017-11-26T08:24:48.706Z,22.00
2017-11-26T08:25:48.710Z,16.60
2017-11-26T08:26:48.714Z,22.10
2017-11-26T08:27:48.718Z,19.90
2017-11-26T08:28:48.721Z,10.80
2017-11-26T08:29:48.730Z,14.90
2017-11-26T08:30:48.743Z,18.30
2017-11-26T08:31:48.743Z,16.50
2017-11-26T08:32:48.748Z,15.40
2017-11-26T08:33:48.753Z,16.30
2017-11-26T08:34:48.757Z,15.80
2017-11-26T08:35:48.767Z,18.50
2017-11-26T08:36:48.775Z,15.70
2017-11-26T08:37:48.775Z,16.60
2017-11-26T08:38:48.781Z,23.70
2017-11-26T08:39:48.796Z,16.00
2017-11-26T08:40:48.798Z,17.50
2017-11-26T08:41:48.800Z,17.50
2017-11-26T08:42:48.810Z,16.40
2017-11-26T08:43:48.819Z,14.00
2017-11-26T08:44:48.821Z,20.20
2017-11-26T08:45:48.821Z,15.40
2017-11-26T08:46:48.831Z,16.70
2017-11-26T08:47:48.834Z,14.10
2017-11-26T08:48:48.850Z,16.10
2017-11-26T08:49:48.850Z,19.70
2017-11-26T08:50:48.854Z,18.00
2017-11-26T08:51:48.866Z,17.70
2017-11-26T08:52:48.863Z,13.50
2017-11-26T08:53:49.668Z,16.20
2017-11-26T08:54:48.876Z,10.20
2017-11-26T08:55:48.882Z,15.10
2017-11-26T08:56:48.893Z,16.60
2017-11-26T08:57:48.896Z,18.70
2017-11-26T08:58:48.920Z,12.30
2017-11-26T08:59:48.913Z,16.80
2017-11-26T09:00:48.915Z,13.60
2017-11-26T09:01:48.958Z,19.70
2017-11-26T09:02:48.932Z,15.50
2017-11-26T09:03:48.942Z,19.30
2017-11-26T09:04:48.939Z,10.50
2017-11-26T09:05:48.947Z,13.30
2017-11-26T09:06:49.662Z,15.30
2017-11-26T09:07:48.970Z,16.00
2017-11-26T09:08:48.966Z,18.70
2017-11-26T09:09:48.975Z,16.40
2017-11-26T09:10:48.983Z,18.20
2017-11-26T09:11:48.997Z,11.50
2017-11-26T09:12:48.986Z,10.60
2017-11-26T09:13:49.002Z,12.60
2017-11-26T09:14:49.006Z,14.70
2017-11-26T09:15:49.010Z,15.40
2017-11-26T09:16:49.021Z,10.30
2017-11-26T09:17:49.022Z,13.20
2017-11-26T09:18:49.025Z,11.60
2017-11-26T09:19:49.039Z,12.50
2017-11-26T09:20:49.047Z,18.20
2017-11-26T09:21:49.162Z,13.60
2017-11-26T09:22:49.051Z,15.30
2017-11-26T09:23:49.093Z,15.20
2017-11-26T09:24:49.065Z,22.10
2017-11-26T09:25:49.070Z,20.40
2017-11-26T09:26:49.089Z,22.30
2017-11-26T09:27:49.083Z,19.10
2017-11-26T09:28:49.099Z,15.50
2017-11-26T09:29:49.095Z,17.10
2017-11-26T09:30:49.099Z,14.30
2017-11-26T09:31:49.108Z,17.20
2017-11-26T09:32:49.114Z,15.50
2017-11-26T09:33:49.133Z,10.70
2017-11-26T09:34:49.127Z,17.90
2017-11-26T09:35:49.146Z,9.80
2017-11-26T09:36:49.144Z,17.40
2017-11-26T09:37:49.154Z,22.00
2017-11-26T09:38:49.156Z,18.60
2017-11-26T09:39:49.163Z,20.10
2017-11-26T09:40:49.176Z,15.00
2017-11-26T09:41:49.172Z,17.60
2017-11-26T09:42:49.181Z,20.70
2017-11-26T09:43:49.184Z,12.50
2017-11-26T09:44:49.294Z,18.40
2017-11-26T09:45:49.194Z,19.10
2017-11-26T09:46:49.204Z,17.60
2017-11-26T09:47:49.212Z,12.40
2017-11-26T09:48:49.224Z,15.30
2017-11-26T09:49:49.224Z,19.90
2017-11-26T09:50:49.226Z,17.20
2017-11-26T09:51:49.246Z,20.00
2017-11-26T09:52:49.240Z,19.30
2017-11-26T09:53:49.243Z,16.70
2017-11-26T09:54:49.255Z,14.00
2017-11-26T09:55:49.282Z,11.30
2017-11-26T09:56:49.263Z,16.00
2017-11-26T09:57:49.277Z,15.30
2017-11-26T09:58:49.285Z,17.40
2017-11-26T09:59:49.292Z,21.40
2017-11-26T10:00:49.311Z,17.50
2017-11-26T10:01:49.299Z,15.40
2017-11-26T10:02:49.310Z,17.40
2017-11-26T10:03:49.308Z,18.50
2017-11-26T10:04:49.319Z,12.90
2017-11-26T10:05:49.331Z,22.10
2017-11-26T10:06:49.335Z,19.60
2017-11-26T10:07:49.356Z,15.60
2017-11-26T10:08:49.364Z,17.00
2017-11-26T10:09:49.352Z,13.60
2017-11-26T10:10:49.361Z,16.40
2017-11-26T10:11:49.392Z,16.00
2017-11-26T10:12:49.376Z,13.60
2017-11-26T10:13:49.385Z,18.10
2017-11-26T10:14:49.391Z,15.50
2017-11-26T10:15:49.402Z,20.10
2017-11-26T10:16:49.396Z,13.00
2017-11-26T10:17:49.405Z,14.40
2017-11-26T10:18:49.409Z,17.00
2017-11-26T10:19:49.415Z,20.30
2017-11-26T10:20:49.425Z,15.80
2017-11-26T10:21:49.431Z,16.50
2017-11-26T10:22:49.436Z,18.80
2017-11-26T10:23:49.447Z,16.50
2017-11-26T10:24:49.451Z,16.00
2017-11-26T10:25:49.477Z,13.80
2017-11-26T10:26:49.466Z,15.10
2017-11-26T10:27:49.470Z,13.60
2017-11-26T10:28:49.483Z,14.50
2017-11-26T10:29:49.479Z,19.70
2017-11-26T10:30:49.486Z,14.40
2017-11-26T10:31:49.505Z,18.20
2017-11-26T10:32:49.505Z,12.40
2017-11-26T10:33:49.509Z,18.50
2017-11-26T10:34:49.518Z,15.10
2017-11-26T10:35:49.598Z,15.00
2017-11-26T10:36:49.530Z,17.60
2017-11-26T10:37:49.549Z,15.00
2017-11-26T10:38:49.543Z,17.80
2017-11-26T10:39:49.548Z,15.10
2017-11-26T10:40:49.561Z,13.40
2017-11-26T10:41:49.563Z,17.30
2017-11-26T10:42:49.568Z,14.50
2017-11-26T10:43:49.605Z,19.00
2017-11-26T10:44:49.589Z,14.40
2017-11-26T10:45:49.584Z,16.00
2017-11-26T10:46:49.613Z,17.20
2017-11-26T10:47:49.609Z,15.90
2017-11-26T10:48:49.616Z,18.50
2017-11-26T10:49:49.614Z,15.20
2017-11-26T10:50:49.624Z,14.30
2017-11-26T10:51:49.629Z,17.50
2017-11-26T10:52:49.641Z,13.70
2017-11-26T10:53:49.641Z,13.50
2017-11-26T10:54:49.653Z,16.00
2017-11-26T10:55:49.659Z,14.30
2017-11-26T10:56:49.772Z,16.00
2017-11-26T10:58:49.689Z,14.20
2017-11-26T10:59:49.678Z,17.30
2017-11-26T11:00:49.719Z,18.20
2017-11-26T11:01:50.069Z,13.20
2017-11-26T11:02:49.710Z,15.40
2017-11-26T11:03:49.710Z,10.60
2017-11-26T11:04:49.721Z,13.10
2017-11-26T11:05:49.750Z,21.40
2017-11-26T11:06:49.728Z,19.50
2017-11-26T11:07:49.738Z,14.10
2017-11-26T11:08:49.749Z,19.30
2017-11-26T11:09:49.744Z,18.70
2017-11-26T11:10:49.770Z,18.00
2017-11-26T11:11:49.762Z,13.10
2017-11-26T11:12:49.769Z,21.70
2017-11-26T11:13:49.783Z,13.10
2017-11-26T11:14:49.788Z,15.60
2017-11-26T11:15:49.784Z,16.30
2017-11-26T11:16:49.812Z,17.30
2017-11-26T11:17:49.819Z,17.30
2017-11-26T11:18:49.808Z,20.40
2017-11-26T11:19:49.817Z,15.10
2017-11-26T11:20:49.823Z,18.30
2017-11-26T11:21:49.843Z,16.90
2017-11-26T11:22:49.838Z,16.60
2017-11-26T11:23:49.844Z,16.10
2017-11-26T11:24:49.850Z,14.70
2017-11-26T11:25:49.858Z,21.00
2017-11-26T11:26:49.965Z,13.30
2017-11-26T11:27:49.876Z,17.60
2017-11-26T11:28:49.877Z,17.40
2017-11-26T11:29:49.891Z,17.90
2017-11-26T11:30:49.896Z,21.20
2017-11-26T11:31:49.909Z,18.90
2017-11-26T11:32:49.909Z,22.00
2017-11-26T11:33:49.913Z,19.80
2017-11-26T11:34:49.928Z,20.00
2017-11-26T11:35:49.925Z,17.20
2017-11-26T11:36:49.945Z,16.80
2017-11-26T11:37:49.940Z,17.80
2017-11-26T11:38:49.949Z,19.40
2017-11-26T11:39:49.956Z,16.50
2017-11-26T11:40:49.970Z,17.50
2017-11-26T11:41:49.969Z,17.70
2017-11-26T11:42:49.982Z,19.80
2017-11-26T11:43:49.981Z,19.20
2017-11-26T11:44:49.994Z,16.70
2017-11-26T11:45:49.995Z,13.10
2017-11-26T11:46:50.003Z,15.70
2017-11-26T11:47:50.011Z,21.20
2017-11-26T11:49:50.021Z,21.90
2017-11-26T11:50:50.043Z,19.00
2017-11-26T11:51:50.053Z,19.00
2017-11-26T11:52:50.042Z,18.60
2017-11-26T11:53:50.059Z,19.50
2017-11-26T11:54:50.083Z,21.60
2017-11-26T11:55:50.084Z,17.70
2017-11-26T11:56:50.075Z,17.90
2017-11-26T11:57:50.089Z,16.40
2017-11-26T11:58:50.106Z,15.60
2017-11-26T11:59:50.107Z,19.50
2017-11-26T12:00:50.106Z,17.90
2017-11-26T12:01:50.111Z,14.50
2017-11-26T12:04:50.163Z,16.40
2017-11-26T12:05:50.140Z,11.70
2017-11-26T12:06:50.147Z,19.50
2017-11-26T12:07:50.164Z,17.00
2017-11-26T12:08:50.179Z,18.40
2017-11-26T12:09:50.173Z,21.30
2017-11-26T12:10:50.179Z,18.30
2017-11-26T12:11:50.190Z,17.80
2017-11-26T12:12:50.212Z,16.80
2017-11-26T12:13:50.209Z,17.80
2017-11-26T12:14:50.674Z,14.30
2017-11-26T12:15:50.225Z,12.80
2017-11-26T12:16:50.235Z,16.30
2017-11-26T12:17:50.255Z,14.20
2017-11-26T12:18:50.244Z,8.80
2017-11-26T12:19:50.261Z,15.90
2017-11-26T12:20:50.273Z,16.90
2017-11-26T12:21:50.277Z,16.70
2017-11-26T12:22:50.292Z,15.50
2017-11-26T12:23:50.288Z,13.20
2017-11-26T12:24:50.291Z,14.10
2017-11-26T12:25:50.297Z,16.00
2017-11-26T12:26:50.316Z,15.90
2017-11-26T12:27:50.353Z,14.00
2017-11-26T12:28:50.328Z,22.30
2017-11-26T12:29:50.335Z,17.20
2017-11-26T12:30:50.348Z,16.80
2017-11-26T12:31:50.355Z,13.30
2017-11-26T12:32:50.357Z,17.70
2017-11-26T12:33:50.362Z,17.80
2017-11-26T12:34:50.371Z,15.20
2017-11-26T12:35:50.396Z,13.80
2017-11-26T12:36:50.396Z,15.10
2017-11-26T12:37:50.413Z,14.90
2017-11-26T12:38:50.401Z,19.10
2017-11-26T12:39:50.417Z,9.50
2017-11-26T12:40:50.423Z,18.90
2017-11-26T12:41:50.422Z,15.30
2017-11-26T12:42:50.499Z,15.30
2017-11-26T12:43:50.446Z,16.40
2017-11-26T12:44:50.453Z,14.70
2017-11-26T12:45:50.452Z,12.90
2017-11-26T12:46:50.470Z,13.00
2017-11-26T12:47:50.473Z,15.40
2017-11-26T12:48:50.481Z,14.50
2017-11-26T12:49:50.496Z,18.20
2017-11-26T12:50:50.508Z,19.50
2017-11-26T12:51:50.503Z,18.30
2017-11-26T12:52:50.506Z,12.80
2017-11-26T12:53:50.519Z,16.00
2017-11-26T12:54:50.531Z,15.50
2017-11-26T12:55:50.534Z,16.20
2017-11-26T12:56:50.550Z,17.90
2017-11-26T12:57:50.543Z,15.70